Time;durP1;ratioP1;P1;durP2;ratioP2;P2;SDS_P1;SDS_P2;PMS_P1;PMS_P2;Temp;Humidity;BMP_temperature;BMP_pressure;BME280_temperature;BME280_humidity;BME280_pressure;Samples;Min_cycle;Max_cycle;Signal;HPM_P1;HPM_P2
2022/11/19 00:01:25;;;;;;;32.15;19.10;;;;;;;-0.78;100.00;99142.33;1673334;84;21108;-66
2022/11/19 00:03:51;;;;;;;30.85;17.98;;;;;;;-0.81;100.00;99135.86;1681930;84;21009;-66
2022/11/19 00:06:21;;;;;;;36.42;19.23;;;;;;;-0.78;100.00;99134.56;1682054;84;21096;-64
2022/11/19 00:08:48;;;;;;;29.98;17.15;;;;;;;-0.80;100.00;99136.74;1680563;84;21268;-64
2022/11/19 00:14:04;;;;;;;32.33;17.12;;;;;;;-0.83;100.00;99126.41;1671495;84;21125;-66
2022/11/19 00:16:31;;;;;;;28.38;16.70;;;;;;;-0.83;100.00;99110.89;1683919;84;21056;-66
2022/11/19 00:18:58;;;;;;;29.82;17.40;;;;;;;-0.77;100.00;99105.25;1677587;84;21089;-66
2022/11/19 00:21:25;;;;;;;26.23;15.15;;;;;;;-0.83;100.00;99097.97;1679747;84;22041;-67
2022/11/19 00:23:53;;;;;;;30.60;16.25;;;;;;;-0.86;100.00;99101.44;1679583;84;21078;-65
2022/11/19 00:26:20;;;;;;;31.42;17.90;;;;;;;-0.74;100.00;99093.58;1688740;84;21053;-65
2022/11/19 00:28:47;;;;;;;29.98;17.50;;;;;;;-0.87;100.00;99088.95;1681301;84;21120;-65
2022/11/19 00:31:14;;;;;;;29.98;16.82;;;;;;;-0.80;100.00;99085.04;1676067;84;21074;-65
2022/11/19 00:33:43;;;;;;;31.02;17.07;;;;;;;-0.79;100.00;99085.01;1679414;84;21218;-66
2022/11/19 00:36:13;;;;;;;29.10;16.82;;;;;;;-0.75;100.00;99071.19;1681972;84;21568;-64
2022/11/19 00:38:40;;;;;;;29.07;16.55;;;;;;;-0.82;100.00;99069.53;1684905;84;21222;-64
2022/11/19 00:41:07;;;;;;;28.55;16.10;;;;;;;-0.85;100.00;99066.98;1683072;84;21096;-65
2022/11/19 00:43:46;;;;;;;29.92;16.30;;;;;;;-0.80;100.00;99053.58;1685386;84;21573;-66
2022/11/19 00:46:28;;;;;;;24.25;13.78;;;;;;;-0.75;100.00;99041.46;1690660;84;21739;-65
2022/11/19 00:48:58;;;;;;;26.95;15.78;;;;;;;-0.77;100.00;99040.61;1686875;84;21678;-65
2022/11/19 00:51:27;;;;;;;27.30;15.05;;;;;;;-0.82;100.00;99024.29;1683435;84;21108;-64
2022/11/19 00:53:54;;;;;;;24.87;13.53;;;;;;;-0.81;100.00;99025.99;1679607;84;21516;-63
2022/11/19 00:56:23;;;;;;;24.80;13.35;;;;;;;-0.69;100.00;99020.73;1687770;84;21076;-65
2022/11/19 00:58:50;;;;;;;23.55;14.40;;;;;;;-0.68;100.00;99014.67;1689209;84;21318;-65
2022/11/19 01:01:20;;;;;;;22.67;13.10;;;;;;;-0.67;100.00;99019.41;1680525;84;21526;-65
2022/11/19 01:03:46;;;;;;;21.48;13.45;;;;;;;-0.69;100.00;99011.69;1676254;85;21080;-65
2022/11/19 01:06:15;;;;;;;19.57;11.18;;;;;;;-0.61;100.00;99014.62;1680440;84;21533;-65
2022/11/19 01:08:43;;;;;;;21.60;12.78;;;;;;;-0.59;100.00;99012.44;1681941;82;21088;-65
2022/11/19 01:11:12;;;;;;;21.37;12.85;;;;;;;-0.59;100.00;99015.47;1676251;85;21581;-65
2022/11/19 01:13:39;;;;;;;19.77;12.00;;;;;;;-0.56;100.00;99015.43;1673711;85;21038;-66
2022/11/19 01:16:17;;;;;;;23.30;12.85;;;;;;;-0.50;100.00;99002.45;1680661;85;21679;-65
2022/11/19 01:18:45;;;;;;;22.20;13.10;;;;;;;-0.48;100.00;98996.83;1679480;85;21068;-65
2022/11/19 01:21:12;;;;;;;21.75;13.70;;;;;;;-0.49;100.00;99000.27;1679907;84;21045;-65
2022/11/19 01:23:40;;;;;;;21.68;13.00;;;;;;;-0.49;100.00;98988.19;1678966;85;21142;-65
2022/11/19 01:26:08;;;;;;;21.65;12.50;;;;;;;-0.49;100.00;98989.48;1678908;85;21081;-65
2022/11/19 01:28:35;;;;;;;19.42;12.05;;;;;;;-0.45;100.00;98987.29;1683340;84;21056;-64
2022/11/19 01:31:10;;;;;;;20.97;11.35;;;;;;;-0.45;100.00;98986.00;1682554;83;21066;-65
2022/11/19 01:33:38;;;;;;;18.75;11.80;;;;;;;-0.43;100.00;98983.41;1686731;84;21033;-65
2022/11/19 01:36:07;;;;;;;21.02;11.38;;;;;;;-0.36;100.00;98983.75;1679117;84;21275;-64
2022/11/19 01:38:35;;;;;;;16.77;10.23;;;;;;;-0.29;100.00;98981.95;1647897;86;21089;-64
2022/11/19 01:41:01;;;;;;;20.30;11.57;;;;;;;-0.29;100.00;98979.37;1675756;83;21097;-66
2022/11/19 01:43:57;;;;;;;16.48;10.32;;;;;;;-0.26;100.00;98972.41;1686345;83;21059;-65
2022/11/19 01:46:33;;;;;;;18.32;10.68;;;;;;;-0.28;100.00;98974.59;1669422;84;21573;-65
2022/11/19 01:49:05;;;;;;;18.23;10.63;;;;;;;-0.20;100.00;98961.59;1674902;84;21231;-64
2022/11/19 01:51:56;;;;;;;17.42;10.80;;;;;;;-0.16;100.00;98952.89;1683340;84;21036;-66
2022/11/19 01:54:37;;;;;;;15.23;10.28;;;;;;;-0.19;100.00;98960.70;1673009;84;22335;-63
2022/11/19 01:57:07;;;;;;;16.45;10.18;;;;;;;-0.09;100.00;98957.11;1679607;84;21029;-65
2022/11/19 01:59:34;;;;;;;;;;;;;;;-0.14;100.00;98952.44;1679496;84;22140;-63
2022/11/19 02:02:01;;;;;;;21.33;10.88;;;;;;;-0.16;100.00;98950.30;1680030;84;23248;-66
2022/11/19 02:04:28;;;;;;;14.87;9.78;;;;;;;-0.14;100.00;98953.73;1680042;84;21006;-65
2022/11/19 02:06:55;;;;;;;14.90;8.90;;;;;;;-0.07;100.00;98946.30;1682041;84;21104;-65
2022/11/19 02:09:23;;;;;;;14.18;8.78;;;;;;;-0.03;100.00;98945.39;1692886;82;21182;-64
2022/11/19 02:12:19;;;;;;;13.05;8.55;;;;;;;-0.01;100.00;98937.17;1690079;84;21116;-65
2022/11/19 02:15:07;;;;;;;17.52;9.95;;;;;;;0.02;100.00;98935.83;1687132;84;21550;-65
2022/11/19 02:18:08;;;;;;;17.00;9.60;;;;;;;-0.04;100.00;98927.72;1687202;84;21077;-66
2022/11/19 02:21:02;;;;;;;16.67;10.20;;;;;;;0.04;100.00;98921.58;1686364;84;21044;-64
2022/11/19 02:24:21;;;;;;;12.82;9.13;;;;;;;-0.03;100.00;98916.92;1688795;84;21112;-66
2022/11/19 02:27:00;;;;;;;15.35;10.10;;;;;;;0.00;100.00;98913.02;1680527;84;21071;-64
2022/11/19 02:30:03;;;;;;;17.62;10.78;;;;;;;-0.02;100.00;98907.86;1684010;84;21621;-64
2022/11/19 02:32:54;;;;;;;14.25;8.73;;;;;;;-0.05;100.00;98910.91;1669461;84;21037;-65
2022/11/19 02:35:45;;;;;;;16.45;9.83;;;;;;;0.02;100.00;98907.36;1686666;84;21163;-65
2022/11/19 02:38:36;;;;;;;16.15;10.23;;;;;;;-0.10;100.00;98910.97;1685717;84;21074;-65
2022/11/19 02:41:33;;;;;;;13.20;8.88;;;;;;;-0.07;100.00;98916.13;1683469;84;21100;-64
2022/11/19 02:46:57;;;;;;;13.98;8.38;;;;;;;0.00;100.00;98906.55;1687749;84;21629;-64
2022/11/19 02:49:26;;;;;;;10.25;6.67;;;;;;;0.02;100.00;98909.94;1658746;84;21136;-66
2022/11/19 02:51:53;;;;;;;12.20;7.87;;;;;;;0.06;100.00;98903.85;1681205;84;21049;-66
2022/11/19 02:54:20;;;;;;;13.88;8.18;;;;;;;0.06;100.00;98898.67;1682231;84;21052;-65
2022/11/19 02:56:51;;;;;;;13.48;8.53;;;;;;;0.02;100.00;98907.36;1633850;85;21819;-65
2022/11/19 03:04:54;;;;;;;13.93;7.85;;;;;;;0.13;100.00;98910.65;1678017;85;21563;-64
2022/11/19 03:07:20;;;;;;;14.05;8.63;;;;;;;0.21;100.00;98913.15;1679841;82;21135;-66
2022/11/19 03:09:54;;;;;;;12.25;8.30;;;;;;;0.10;100.00;98906.83;1681941;84;21246;-64
2022/11/19 03:12:40;;;;;;;12.50;8.23;;;;;;;0.10;100.00;98902.94;1680707;84;21065;-65
2022/11/19 03:18:49;;;;;;;14.20;8.88;;;;;;;0.07;100.00;98908.17;1678479;85;21116;-64
2022/11/19 03:21:29;;;;;;;10.80;7.87;;;;;;;0.07;100.00;98902.99;1681092;85;21658;-64
2022/11/19 03:24:13;;;;;;;14.65;9.33;;;;;;;0.08;100.00;98898.66;1669416;85;21847;-64
2022/11/19 03:26:54;;;;;;;14.47;8.88;;;;;;;0.10;100.00;98902.94;1679978;85;22227;-64
2022/11/19 03:29:21;;;;;;;;;;;;;;;0.16;100.00;98888.63;1681743;84;21111;-64
2022/11/19 03:31:51;;;;;;;11.88;8.13;;;;;;;0.05;100.00;98886.63;1679724;85;20145;-66
2022/11/19 03:34:20;;;;;;;11.38;7.87;;;;;;;-0.02;100.00;98881.13;1682489;84;21112;-66
2022/11/19 03:36:48;;;;;;;13.55;8.70;;;;;;;-0.08;100.00;98873.44;1678563;84;21457;-64
2022/11/19 03:39:17;;;;;;;11.95;7.97;;;;;;;-0.03;100.00;98875.51;1681356;85;21147;-66
2022/11/19 03:41:47;;;;;;;11.87;8.50;;;;;;;0.04;100.00;98869.36;1680425;85;21065;-65
2022/11/19 03:44:25;;;;;;;10.93;7.83;;;;;;;0.11;100.00;98863.22;1679674;84;21013;-65
2022/11/19 03:47:03;;;;;;;13.32;8.25;;;;;;;0.04;100.00;98862.05;1680408;84;21604;-66
2022/11/19 03:49:36;;;;;;;12.45;7.65;;;;;;;0.07;100.00;98868.05;1679039;84;21517;-64
2022/11/19 03:52:12;;;;;;;10.03;6.83;;;;;;;0.09;100.00;98872.77;1678321;85;21065;-66
2022/11/19 03:54:39;;;;;;;12.43;7.53;;;;;;;0.10;100.00;98855.49;1678035;84;21041;-65
2022/11/19 03:57:06;;;;;;;10.72;7.20;;;;;;;0.01;100.00;98860.36;1679081;85;21589;-64
2022/11/19 03:59:34;;;;;;;9.88;6.97;;;;;;;0.02;100.00;98857.33;1659994;84;21080;-65
2022/11/19 04:02:06;;;;;;;10.35;7.03;;;;;;;0.06;100.00;98852.08;1682937;84;21278;-66
2022/11/19 04:04:40;;;;;;;9.58;7.15;;;;;;;0.10;100.00;98845.98;1684115;84;21214;-64
2022/11/19 04:07:12;;;;;;;12.05;6.90;;;;;;;0.17;100.00;98839.83;1687201;82;21056;-65
2022/11/19 04:09:40;;;;;;;9.58;7.08;;;;;;;0.17;100.00;98846.30;1689371;84;21053;-65
2022/11/19 04:12:08;;;;;;;10.08;6.95;;;;;;;0.09;100.00;98843.41;1685568;84;21168;-64
2022/11/19 04:14:35;;;;;;;10.48;6.97;;;;;;;0.05;100.00;98834.86;1681936;84;21158;-64
2022/11/19 04:17:01;;;;;;;11.25;6.75;;;;;;;0.08;100.00;98831.36;1683674;84;21045;-64
2022/11/19 04:19:28;;;;;;;12.23;7.00;;;;;;;0.15;100.00;98823.91;1682379;84;21152;-64
2022/11/19 04:21:55;;;;;;;10.35;7.30;;;;;;;0.11;100.00;98812.73;1677055;84;21105;-66
2022/11/19 04:26:00;;;;;;;11.73;7.07;;;;;;;-0.44;100.00;98809.66;1814588;79;22685;-65
2022/11/19 04:28:26;;;;;;;11.50;6.90;;;;;;;-0.16;100.00;98795.05;1787706;80;21552;-64
2022/11/19 04:30:53;;;;;;;9.65;5.92;;;;;;;-0.10;100.00;98794.95;1787434;80;21245;-63
2022/11/19 04:33:19;;;;;;;9.43;5.92;;;;;;;-0.04;100.00;98788.41;1787577;80;21001;-63
2022/11/19 04:35:47;;;;;;;7.87;5.37;;;;;;;0.01;100.00;98784.00;1787574;80;20992;-65
2022/11/19 04:38:13;;;;;;;8.43;5.72;;;;;;;-0.05;100.00;98776.33;1787547;80;20937;-65
2022/11/19 04:40:41;;;;;;;8.05;5.20;;;;;;;-0.06;100.00;98777.22;1787717;80;21485;-64
2022/11/19 04:43:08;;;;;;;10.45;6.05;;;;;;;-0.01;100.00;98772.81;1787583;80;21135;-65
2022/11/19 04:45:34;;;;;;;17.85;8.40;;;;;;;0.01;100.00;98769.77;1788071;80;20997;-65
2022/11/19 04:48:00;;;;;;;9.48;5.37;;;;;;;-0.08;100.00;98763.00;1787588;80;21545;-64
2022/11/19 04:50:28;;;;;;;15.72;7.42;;;;;;;-0.04;100.00;98768.55;1787747;80;21120;-64
2022/11/19 04:52:54;;;;;;;12.93;6.87;;;;;;;0.07;100.00;98780.03;1787408;80;21061;-64
2022/11/19 04:55:20;;;;;;;6.78;4.90;;;;;;;0.00;100.00;98793.95;1787906;80;21992;-64
2022/11/19 04:57:50;;;;;;;7.08;4.60;;;;;;;-0.02;100.00;98815.12;1787244;80;21010;-64
2022/11/19 05:00:16;;;;;;;7.15;5.15;;;;;;;-0.10;100.00;98810.04;1787609;80;21544;-64
2022/11/19 05:02:43;;;;;;;8.28;5.30;;;;;;;-0.06;100.00;98803.09;1762579;80;21035;-66
2022/11/19 05:05:10;;;;;;;5.72;4.47;;;;;;;-0.11;100.00;98799.73;1756253;81;21564;-64
2022/11/19 05:07:36;;;;;;;7.40;4.47;;;;;;;-0.08;100.00;98818.64;1747074;81;21100;-65
2022/11/19 05:10:04;;;;;;;6.35;4.85;;;;;;;-0.09;100.00;98813.48;1726268;83;21047;-64
2022/11/19 05:12:31;;;;;;;7.47;4.92;;;;;;;-0.04;100.00;98809.11;1726310;83;21115;-65
2022/11/19 05:14:59;;;;;;;6.08;4.50;;;;;;;0.04;100.00;98820.19;1726097;82;21043;-65
2022/11/19 05:17:25;;;;;;;6.55;4.50;;;;;;;0.17;100.00;98819.13;1726249;83;21039;-65
2022/11/19 05:19:51;;;;;;;7.20;4.67;;;;;;;0.18;100.00;98823.44;1726105;83;21114;-66
2022/11/19 05:22:18;;;;;;;6.80;4.35;;;;;;;0.28;100.00;98823.29;1726008;83;21015;-64
2022/11/19 05:24:45;;;;;;;6.35;4.35;;;;;;;0.39;100.00;98820.05;1721551;82;21069;-65
2022/11/19 05:27:11;;;;;;;7.30;5.03;;;;;;;0.37;100.00;98812.77;1713811;83;21496;-65
2022/11/19 05:29:38;;;;;;;5.35;4.33;;;;;;;0.24;100.00;98819.03;1713527;83;21564;-65
2022/11/19 05:32:04;;;;;;;6.92;4.85;;;;;;;0.34;100.00;98823.16;1713490;83;21208;-65
2022/11/19 05:34:31;;;;;;;8.03;5.17;;;;;;;0.41;100.00;98824.77;1713551;82;21004;-65
2022/11/19 05:36:58;;;;;;;6.03;4.60;;;;;;;0.40;100.00;98828.25;1713106;83;21004;-65
2022/11/19 05:39:25;;;;;;;7.53;5.17;;;;;;;0.32;100.00;98821.03;1713201;83;21074;-65
2022/11/19 05:41:52;;;;;;;8.53;5.62;;;;;;;0.33;100.00;98821.47;1713249;82;21000;-66
2022/11/19 05:44:19;;;;;;;5.62;3.90;;;;;;;0.41;100.00;98829.95;1713162;82;21263;-66
2022/11/19 05:46:45;;;;;;;7.05;5.05;;;;;;;0.38;100.00;98824.83;1713159;83;21575;-65
2022/11/19 05:49:12;;;;;;;7.20;4.83;;;;;;;0.18;100.00;98829.91;1713336;83;21051;-65
2022/11/19 05:51:39;;;;;;;7.05;4.60;;;;;;;0.22;100.00;98828.55;1713074;83;21102;-64
2022/11/19 05:54:06;;;;;;;6.35;4.60;;;;;;;0.25;100.00;98826.75;1713267;83;21055;-65
2022/11/19 05:56:33;;;;;;;6.40;4.15;;;;;;;0.28;100.00;98827.17;1713185;82;21261;-65
2022/11/19 05:59:00;;;;;;;7.62;4.72;;;;;;;0.36;100.00;98832.61;1713121;83;21469;-66
2022/11/19 06:01:29;;;;;;;5.37;4.05;;;;;;;0.34;100.00;98830.94;1721185;82;21624;-66
2022/11/19 06:03:55;;;;;;;5.95;4.47;;;;;;;0.27;100.00;98832.77;1742830;82;21094;-65
2022/11/19 06:06:23;;;;;;;7.45;4.92;;;;;;;0.23;100.00;98831.55;1706981;84;21065;-65
2022/11/19 06:08:49;;;;;;;6.42;4.37;;;;;;;0.29;100.00;98837.48;1742855;80;21111;-65
2022/11/19 06:14:02;;;;;;;8.40;5.17;;;;;;;0.25;100.00;98844.03;1742904;82;22151;-65
2022/11/19 06:16:29;;;;;;;8.30;5.47;;;;;;;0.26;100.00;98843.17;1742742;82;21033;-66
2022/11/19 06:18:56;;;;;;;7.55;5.10;;;;;;;0.18;100.00;98849.33;1742872;82;21065;-64
2022/11/19 06:21:23;;;;;;;8.43;5.15;;;;;;;0.35;100.00;98854.23;1742654;82;22238;-65
2022/11/19 06:23:49;;;;;;;9.18;5.78;;;;;;;0.37;100.00;98851.63;1742701;82;21041;-65
2022/11/19 06:26:27;;;;;;;12.15;8.00;;;;;;;0.44;100.00;98857.11;1742462;82;21054;-65
2022/11/19 06:28:54;;;;;;;9.35;5.67;;;;;;;0.44;100.00;98855.82;1742595;82;21089;-64
2022/11/19 06:31:20;;;;;;;12.35;7.72;;;;;;;0.44;100.00;98863.59;1743097;82;21002;-65
2022/11/19 06:33:47;;;;;;;48.60;29.75;;;;;;;0.47;100.00;98867.41;1742647;82;21232;-66
2022/11/19 06:36:14;;;;;;;13.55;8.03;;;;;;;0.48;100.00;98869.11;1742735;82;21097;-64
2022/11/19 06:38:40;;;;;;;15.68;9.35;;;;;;;0.50;100.00;98868.65;1742738;82;21049;-65
2022/11/19 06:41:07;;;;;;;10.70;6.85;;;;;;;0.67;100.00;98864.91;1743110;82;21065;-65
2022/11/19 06:43:34;;;;;;;15.83;7.17;;;;;;;0.61;100.00;98868.03;1742658;82;21057;-65
2022/11/19 06:46:01;;;;;;;15.70;8.28;;;;;;;0.77;100.00;98870.37;1742613;82;22058;-65
2022/11/19 06:48:27;;;;;;;15.05;8.48;;;;;;;0.90;100.00;98882.23;1742615;82;21026;-65
2022/11/19 06:50:55;;;;;;;16.48;9.43;;;;;;;1.01;100.00;98887.20;1742741;82;21093;-66
2022/11/19 06:53:21;;;;;;;13.60;8.28;;;;;;;0.96;100.00;98884.70;1742893;82;21045;-65
2022/11/19 06:55:56;;;;;;;19.48;9.50;;;;;;;1.00;100.00;98885.06;1742823;82;21581;-65
2022/11/19 06:58:23;;;;;;;14.80;8.08;;;;;;;1.11;100.00;98880.14;1742819;82;21148;-66
2022/11/19 07:00:49;;;;;;;11.20;6.47;;;;;;;1.15;100.00;98880.47;1742715;82;21092;-66
2022/11/19 07:03:16;;;;;;;14.25;7.42;;;;;;;0.95;100.00;98883.00;1743101;82;21067;-65
2022/11/19 07:05:42;;;;;;;16.17;8.48;;;;;;;1.01;100.00;98876.42;1742662;82;21063;-65
2022/11/19 07:08:09;;;;;;;11.55;6.47;;;;;;;1.01;100.00;98889.38;1742872;82;21059;-65
2022/11/19 07:10:36;;;;;;;18.57;9.23;;;;;;;1.03;100.00;98891.92;1742826;82;21287;-65
2022/11/19 07:13:03;;;;;;;13.70;8.08;;;;;;;1.08;100.00;98895.73;1742718;82;21055;-66
2022/11/19 07:15:31;;;;;;;15.80;8.65;;;;;;;1.05;100.00;98894.91;1742930;82;21044;-66
2022/11/19 07:17:57;;;;;;;9.78;6.25;;;;;;;1.04;100.00;98889.31;1742796;82;21059;-66
2022/11/19 07:20:24;;;;;;;11.40;6.80;;;;;;;1.14;100.00;98895.63;1742695;82;21023;-65
2022/11/19 07:22:51;;;;;;;12.88;7.55;;;;;;;1.20;100.00;98898.12;1742650;82;21110;-65
2022/11/19 07:25:17;;;;;;;12.30;7.20;;;;;;;1.35;100.00;98905.59;1745154;82;21582;-65
2022/11/19 07:27:47;;;;;;;10.85;6.60;;;;;;;1.35;100.00;98906.88;1750689;82;21055;-65
2022/11/19 07:30:16;;;;;;;16.87;8.20;;;;;;;1.35;100.00;98906.88;1750928;82;21059;-65
2022/11/19 07:32:44;;;;;;;12.15;7.12;;;;;;;1.42;100.00;98905.88;1750456;82;21103;-66
2022/11/19 07:35:11;;;;;;;10.60;7.00;;;;;;;1.41;100.00;98911.97;1750525;81;21156;-66
2022/11/19 07:37:38;;;;;;;7.75;5.50;;;;;;;1.43;100.00;98910.20;1750613;81;22224;-65
2022/11/19 07:40:05;;;;;;;7.15;5.65;;;;;;;1.44;100.00;98909.30;1750889;81;21546;-65
2022/11/19 07:42:52;;;;;;;8.05;5.60;;;;;;;1.41;100.00;98918.90;1750570;82;21023;-63
2022/11/19 07:45:21;;;;;;;8.73;6.22;;;;;;;1.45;100.00;98919.27;1751045;82;21562;-66
2022/11/19 07:47:48;;;;;;;8.48;5.67;;;;;;;1.49;100.00;98921.33;1750643;81;21073;-66
2022/11/19 07:50:16;;;;;;;6.95;5.47;;;;;;;1.50;100.00;98926.50;1750861;82;21559;-65
2022/11/19 07:52:42;;;;;;;7.30;5.42;;;;;;;1.48;100.00;98924.83;1750597;81;21055;-66
2022/11/19 07:55:09;;;;;;;22.35;13.75;;;;;;;1.59;100.00;98928.07;1750673;82;21043;-66
2022/11/19 07:57:36;;;;;;;14.83;9.10;;;;;;;1.60;100.00;98928.47;1750550;82;21528;-66
2022/11/19 08:00:05;;;;;;;12.68;7.35;;;;;;;1.62;100.00;98939.22;1750796;81;21247;-66
2022/11/19 08:02:35;;;;;;;10.32;6.17;;;;;;;1.67;100.00;98931.34;1728523;81;21626;-66
2022/11/19 08:05:01;;;;;;;8.38;5.45;;;;;;;1.83;100.00;98935.34;1720772;83;21050;-65
2022/11/19 08:07:28;;;;;;;9.28;6.30;;;;;;;1.87;100.00;98936.99;1720652;83;21023;-65
2022/11/19 08:09:56;;;;;;;8.58;6.17;;;;;;;1.92;100.00;98938.64;1720544;83;21046;-66
2022/11/19 08:12:22;;;;;;;9.73;6.72;;;;;;;2.00;100.00;98941.91;1720728;83;21269;-66
2022/11/19 08:14:49;;;;;;;10.55;7.30;;;;;;;1.87;100.00;98944.78;1720935;83;21513;-66
2022/11/19 08:20:02;;;;;;;9.93;7.08;;;;;;;1.81;100.00;98952.69;1720929;83;21085;-66
2022/11/19 08:22:29;;;;;;;9.90;6.95;;;;;;;1.82;100.00;98953.11;1720757;83;21532;-66
2022/11/19 08:24:55;;;;;;;9.85;6.85;;;;;;;1.81;100.00;98963.06;1720628;83;21844;-66
2022/11/19 08:27:22;;;;;;;10.30;6.67;;;;;;;1.72;100.00;98969.73;1702571;84;21051;-66
2022/11/19 08:29:49;;;;;;;11.25;6.87;;;;;;;1.84;100.00;98969.52;1702842;84;21083;-65
2022/11/19 08:32:16;;;;;;;9.38;6.28;;;;;;;1.80;100.00;98976.95;1702675;84;21572;-65
2022/11/19 08:34:42;;;;;;;9.18;6.42;;;;;;;1.84;100.00;98972.11;1702606;84;21645;-66
2022/11/19 08:37:12;;;;;;;9.25;6.65;;;;;;;1.89;100.00;98978.51;1702450;84;21160;-65
2022/11/19 08:39:42;;;;;;;15.28;7.55;;;;;;;1.73;100.00;98977.95;1702608;84;21048;-65
2022/11/19 08:44:54;;;;;;;11.63;7.75;;;;;;;1.98;100.00;98975.72;1702496;84;22227;-65
2022/11/19 08:47:21;;;;;;;10.98;7.60;;;;;;;2.02;100.00;98993.38;1702532;84;21107;-66
2022/11/19 08:49:47;;;;;;;9.33;6.75;;;;;;;2.16;100.00;98993.94;1702509;84;21172;-66
2022/11/19 08:52:15;;;;;;;10.38;7.10;;;;;;;2.29;100.00;98996.69;1702506;84;21790;-66
2022/11/19 08:54:41;;;;;;;10.93;7.50;;;;;;;2.35;100.00;98997.44;1702866;84;21659;-65
2022/11/19 08:57:08;;;;;;;9.60;7.00;;;;;;;2.37;100.00;99011.26;1702608;84;21047;-65
2022/11/19 08:59:35;;;;;;;11.22;7.75;;;;;;;2.49;100.00;99021.41;1702780;84;21071;-65
2022/11/19 09:02:01;;;;;;;12.23;7.87;;;;;;;2.49;100.00;99021.41;1722738;82;21175;-66
2022/11/19 09:04:28;;;;;;;9.05;6.92;;;;;;;2.49;100.00;99027.91;1706645;84;21033;-65
2022/11/19 09:06:56;;;;;;;10.88;7.37;;;;;;;2.44;100.00;99031.02;1706703;83;21078;-65
2022/11/19 09:09:23;;;;;;;10.75;7.67;;;;;;;2.45;100.00;99032.30;1742588;82;21033;-66
2022/11/19 09:11:50;;;;;;;11.95;8.03;;;;;;;2.36;100.00;99021.25;1742854;82;21540;-65
2022/11/19 09:14:17;;;;;;;9.93;7.42;;;;;;;2.42;100.00;99031.53;1742803;82;21154;-65
2022/11/19 09:16:43;;;;;;;10.93;8.03;;;;;;;2.37;100.00;99039.84;1742897;82;21120;-66
2022/11/19 09:19:10;;;;;;;9.58;6.90;;;;;;;2.34;100.00;99045.11;1742890;82;20991;-66
2022/11/19 09:21:36;;;;;;;11.63;7.60;;;;;;;2.34;100.00;99045.11;1743045;82;21053;-66
2022/11/19 09:24:04;;;;;;;12.90;8.58;;;;;;;2.26;100.00;99046.13;1706815;84;21034;-65
2022/11/19 09:26:31;;;;;;;14.38;9.15;;;;;;;2.19;100.00;99050.20;1710842;83;21168;-66
2022/11/19 09:28:57;;;;;;;11.93;8.00;;;;;;;2.25;100.00;99059.98;1714367;83;21101;-66
2022/11/19 09:31:25;;;;;;;12.05;8.58;;;;;;;2.25;100.00;99072.98;1750725;81;21622;-65
2022/11/19 09:33:51;;;;;;;11.40;8.05;;;;;;;2.22;100.00;99082.14;1714532;83;21105;-66
2022/11/19 09:36:18;;;;;;;11.05;8.18;;;;;;;2.21;100.00;99081.74;1721350;82;20994;-66
2022/11/19 09:38:45;;;;;;;14.40;9.20;;;;;;;2.10;100.00;99083.69;1750900;82;21214;-66
2022/11/19 09:41:37;;;;;;;10.70;7.78;;;;;;;2.22;100.00;99078.25;1750848;82;21683;-66
2022/11/19 09:44:51;;;;;;;12.40;8.20;;;;;;;2.27;100.00;99076.41;1750797;82;21088;-66
2022/11/19 09:47:33;;;;;;;16.82;10.55;;;;;;;2.31;100.00;99081.95;1750735;82;21092;-66
2022/11/19 09:50:19;;;;;;;16.27;9.05;;;;;;;2.54;100.00;99076.73;1750908;82;21056;-66
2022/11/19 09:53:03;;;;;;;11.43;8.10;;;;;;;2.65;100.00;99082.56;1750616;82;21096;-66
2022/11/19 09:55:40;;;;;;;13.70;9.53;;;;;;;2.68;100.00;99081.19;1750499;82;21396;-67
2022/11/19 09:58:21;;;;;;;16.12;10.75;;;;;;;2.63;100.00;99093.88;1751030;82;21029;-66
2022/11/19 10:00:47;;;;;;;12.78;8.65;;;;;;;2.60;100.00;99101.73;1744159;82;28463;-65
2022/11/19 10:03:16;;;;;;;15.43;11.33;;;;;;;2.52;100.00;99109.69;1714469;83;21022;-65
2022/11/19 10:06:16;;;;;;;15.68;10.08;;;;;;;2.56;100.00;99118.30;1750772;82;21853;-66
2022/11/19 10:09:11;;;;;;;14.63;9.98;;;;;;;2.56;100.00;99118.30;1750392;81;21545;-65
2022/11/19 10:12:12;;;;;;;15.28;10.30;;;;;;;2.53;100.00;99121.78;1750383;82;21073;-66
2022/11/19 10:14:47;;;;;;;13.43;9.20;;;;;;;2.41;100.00;99120.75;1750947;82;21100;-66
2022/11/19 10:17:27;;;;;;;12.80;8.95;;;;;;;2.55;100.00;99120.02;1750676;82;21052;-65
2022/11/19 10:20:30;;;;;;;13.25;9.58;;;;;;;2.19;100.00;99124.23;1750673;82;21839;-65
2022/11/19 10:23:34;;;;;;;16.30;9.78;;;;;;;2.11;100.00;99124.34;1714596;83;21112;-65
2022/11/19 10:26:08;;;;;;;15.48;10.53;;;;;;;1.97;100.00;99125.05;1745688;82;21073;-66
2022/11/19 10:28:37;;;;;;;14.00;9.38;;;;;;;1.85;100.00;99138.66;1742694;82;21524;-65
2022/11/19 10:31:15;;;;;;;19.20;11.63;;;;;;;1.86;100.00;99133.02;1721773;82;21065;-65
2022/11/19 10:34:16;;;;;;;26.52;15.80;;;;;;;1.85;100.00;99127.43;1742567;82;21245;-66
2022/11/19 10:36:49;;;;;;;16.25;11.50;;;;;;;1.95;100.00;99133.31;1742512;82;21093;-65
2022/11/19 10:39:38;;;;;;;14.40;10.18;;;;;;;2.08;100.00;99134.80;1742603;82;21045;-66
2022/11/19 10:42:22;;;;;;;16.93;11.18;;;;;;;2.25;100.00;99141.82;1742855;82;21092;-66
2022/11/19 10:44:56;;;;;;;15.40;9.95;;;;;;;2.23;100.00;99148.81;1742562;82;21096;-65
2022/11/19 10:47:56;;;;;;;17.75;10.82;;;;;;;2.39;100.00;99143.30;1742592;82;22154;-65
2022/11/19 10:50:24;;;;;;;15.10;10.53;;;;;;;2.60;100.00;99144.20;1742980;82;21548;-66
2022/11/19 10:53:13;;;;;;;20.90;13.55;;;;;;;2.81;100.00;99145.48;1742510;82;21048;-65
2022/11/19 10:55:51;;;;;;;15.28;9.90;;;;;;;2.65;100.00;99158.40;1742751;82;21041;-65
2022/11/19 10:58:22;;;;;;;14.80;9.85;;;;;;;2.69;100.00;99167.83;1742979;82;21052;-66
2022/11/19 11:00:51;;;;;;;15.83;10.15;;;;;;;2.76;100.00;99171.16;1742256;82;21517;-66
2022/11/19 11:03:31;;;;;;;17.02;10.25;;;;;;;2.72;100.00;99179.48;1713206;82;21051;-67
2022/11/19 11:06:05;;;;;;;20.95;13.22;;;;;;;2.62;100.00;99184.02;1713128;83;21090;-66
2022/11/19 11:08:34;;;;;;;20.02;11.88;;;;;;;2.75;100.00;99200.20;1712936;82;21098;-66
2022/11/19 11:11:02;;;;;;;18.10;10.63;;;;;;;2.81;100.00;99206.59;1678585;83;21051;-66
2022/11/19 11:16:44;;;;;;;14.35;9.25;;;;;;;2.43;100.00;99215.13;1713155;82;21032;-66
2022/11/19 11:19:18;;;;;;;14.35;9.40;;;;;;;2.09;100.00;99240.39;1713130;83;21048;-66
2022/11/19 11:21:45;;;;;;;12.85;7.80;;;;;;;2.11;100.00;99246.42;1713058;82;21563;-66
2022/11/19 11:24:12;;;;;;;13.85;8.48;;;;;;;1.89;100.00;99259.77;1713022;83;21016;-65
2022/11/19 11:26:39;;;;;;;22.00;13.10;;;;;;;1.97;100.00;99278.27;1713065;82;21644;-66
2022/11/19 11:29:14;;;;;;;18.40;10.18;;;;;;;1.85;100.00;99274.97;1712810;83;21066;-66
2022/11/19 11:31:46;;;;;;;25.25;15.40;;;;;;;1.96;100.00;99271.37;1712925;83;21036;-66
2022/11/19 11:34:32;;;;;;;28.73;13.62;;;;;;;1.92;100.00;99270.99;1712837;83;21572;-66
2022/11/19 11:37:00;;;;;;;18.20;10.43;;;;;;;1.83;100.00;99267.64;1712940;83;21103;-66
2022/11/19 11:39:35;;;;;;;14.43;9.78;;;;;;;1.88;100.00;99275.36;1713083;83;21097;-65
2022/11/19 11:42:03;;;;;;;16.65;10.50;;;;;;;1.81;100.00;99280.23;1712727;82;21381;-66
2022/11/19 11:44:33;;;;;;;12.07;8.60;;;;;;;1.90;100.00;99280.09;1712906;83;21054;-66
2022/11/19 11:47:14;;;;;;;20.65;13.60;;;;;;;1.97;100.00;99282.16;1712852;83;21095;-65
2022/11/19 11:49:44;;;;;;;14.40;8.60;;;;;;;1.99;100.00;99287.73;1713173;83;21556;-66
2022/11/19 11:52:18;;;;;;;11.97;8.30;;;;;;;1.91;100.00;99298.70;1713378;83;21266;-66
2022/11/19 11:55:07;;;;;;;13.95;8.75;;;;;;;1.82;100.00;99302.29;1713063;82;21571;-67
2022/11/19 11:57:36;;;;;;;12.75;8.53;;;;;;;1.87;100.00;99316.05;1712953;83;21039;-66
2022/11/19 12:00:31;;;;;;;12.50;8.33;;;;;;;1.91;100.00;99320.77;1713069;83;22231;-66
2022/11/19 12:03:05;;;;;;;11.95;8.60;;;;;;;1.82;100.00;99349.02;1739302;82;21053;-66
2022/11/19 12:05:44;;;;;;;12.10;8.55;;;;;;;1.75;100.00;99375.95;1707173;84;21816;-66
2022/11/19 12:08:36;;;;;;;13.43;8.70;;;;;;;1.81;100.00;99367.20;1733373;82;21053;-66
2022/11/19 12:11:52;;;;;;;14.47;9.98;;;;;;;1.84;100.00;99375.83;1742664;82;21065;-66
2022/11/19 12:14:08;;;;;;;12.37;8.43;;;;;;;1.57;100.00;99384.83;1739490;82;21053;-66